Time;durP1;ratioP1;P1;durP2;ratioP2;P2;SDS_P1;SDS_P2;PMS_P1;PMS_P2;Temp;Humidity;BMP_temperature;BMP_pressure;BME280_temperature;BME280_humidity;BME280_pressure;Samples;Min_cycle;Max_cycle;Signal;HPM_P1;HPM_P2
2022/01/18 00:01:59;;;;;;;2.52;1.42;;;;;;;6.82;46.12;100717.41;1695047;83;21082;-52
2022/01/18 00:04:27;;;;;;;4.80;1.15;;;;;;;6.77;46.07;100720.02;1680131;83;21616;-52
2022/01/18 00:06:55;;;;;;;2.70;1.40;;;;;;;6.74;46.18;100723.08;1713539;83;21014;-51
2022/01/18 00:09:24;;;;;;;2.30;1.40;;;;;;;6.70;46.14;100729.14;1682253;83;21014;-51
2022/01/18 00:14:25;;;;;;;3.40;1.45;;;;;;;6.66;46.35;100727.44;1663132;84;21020;-51
2022/01/18 00:17:04;;;;;;;2.47;1.35;;;;;;;6.63;46.36;100724.86;1662379;85;21083;-51
2022/01/18 00:19:29;;;;;;;7.55;1.50;;;;;;;6.61;46.14;100740.81;1653611;84;21144;-52
2022/01/18 00:24:28;;;;;;;3.02;1.40;;;;;;;6.54;46.11;100733.52;1657355;85;21111;-53
2022/01/18 00:26:54;;;;;;;1.67;1.20;;;;;;;6.54;46.25;100744.73;1660635;85;20998;-51
2022/01/18 00:29:23;;;;;;;2.33;1.50;;;;;;;6.55;46.23;100741.27;1654993;84;21051;-51
2022/01/18 00:39:15;;;;;;;3.15;1.85;;;;;;;6.48;46.00;100744.77;1652244;85;21786;-51
2022/01/18 00:41:41;;;;;;;1.92;1.50;;;;;;;6.47;46.14;100748.66;1660932;85;21078;-52
2022/01/18 00:44:08;;;;;;;2.98;1.57;;;;;;;6.48;46.07;100753.81;1672924;85;21554;-51
2022/01/18 00:46:39;;;;;;;4.33;2.17;;;;;;;6.47;46.08;100766.30;1661558;85;21102;-51
2022/01/18 00:49:06;;;;;;;2.50;1.80;;;;;;;6.44;45.96;100755.98;1659568;84;21023;-51
2022/01/18 00:51:37;;;;;;;2.42;1.60;;;;;;;6.41;45.86;100770.62;1685428;84;21141;-52
2022/01/18 00:54:06;;;;;;;2.35;1.77;;;;;;;6.38;45.95;100775.41;1694857;83;21037;-51
2022/01/18 00:56:38;;;;;;;2.17;1.40;;;;;;;6.34;45.88;100777.58;1684637;83;21081;-53
2022/01/18 00:59:02;;;;;;;4.12;2.12;;;;;;;6.33;45.81;100772.39;1661528;84;21033;-51
2022/01/18 01:01:30;;;;;;;3.33;1.87;;;;;;;6.30;45.77;100773.29;1652039;85;21094;-51
2022/01/18 01:04:00;;;;;;;3.70;1.82;;;;;;;6.26;45.74;100770.72;1648168;86;21056;-52
2022/01/18 01:06:25;;;;;;;3.77;1.82;;;;;;;6.22;45.87;100775.02;1651839;85;21130;-51
2022/01/18 01:08:51;;;;;;;3.45;1.80;;;;;;;6.22;45.99;100785.81;1661980;85;20987;-51
2022/01/18 01:11:20;;;;;;;3.00;1.65;;;;;;;6.22;45.87;100785.34;1659124;85;21058;-51
2022/01/18 01:13:48;;;;;;;5.83;2.22;;;;;;;6.22;45.95;100789.68;1649518;86;21042;-52
2022/01/18 01:34:54;;;;;;;11.63;10.10;;;;;;;6.27;45.80;100826.26;1611391;88;21087;-52
2022/01/18 01:45:06;;;;;;;2.70;1.70;;;;;;;6.34;45.89;100834.43;1548265;91;21089;-51
2022/01/18 01:47:35;;;;;;;3.12;1.90;;;;;;;6.36;45.84;100833.99;1575763;89;21060;-51
2022/01/18 01:50:07;;;;;;;1.98;1.50;;;;;;;6.36;45.81;100845.62;1560172;90;21115;-51
2022/01/18 01:52:34;;;;;;;2.10;1.60;;;;;;;6.35;45.73;100856.81;1601728;89;21051;-51
2022/01/18 01:55:00;;;;;;;3.58;1.77;;;;;;;6.36;45.69;100858.55;1600772;88;21063;-51
2022/01/18 01:57:27;;;;;;;4.72;1.70;;;;;;;6.34;45.67;100856.82;1602558;88;21104;-51
2022/01/18 01:59:57;;;;;;;2.80;1.42;;;;;;;6.32;45.64;100853.38;1600657;88;21068;-51
2022/01/18 02:02:23;;;;;;;3.35;1.35;;;;;;;6.29;45.69;100853.38;1600931;88;21169;-51
2022/01/18 02:04:50;;;;;;;2.47;1.45;;;;;;;6.27;45.73;100857.27;1597802;88;21138;-51
2022/01/18 02:07:16;;;;;;;2.62;1.55;;;;;;;6.26;45.81;100861.16;1568379;91;21594;-52
2022/01/18 02:09:43;;;;;;;3.10;1.82;;;;;;;6.24;45.89;100856.42;1546356;91;21183;-52
2022/01/18 02:12:11;;;;;;;3.65;1.90;;;;;;;6.23;45.93;100864.59;1580331;89;21094;-51
2022/01/18 02:14:40;;;;;;;3.33;1.42;;;;;;;6.23;45.92;100863.31;1589470;89;21093;-51
2022/01/18 02:22:39;;;;;;;2.90;1.70;;;;;;;6.21;46.00;100862.45;1636576;86;21161;-52
2022/01/18 02:25:06;;;;;;;2.75;1.70;;;;;;;6.20;46.00;100860.72;1639765;85;21079;-51
2022/01/18 02:27:32;;;;;;;3.72;1.92;;;;;;;6.21;46.05;100865.45;1685320;83;21100;-51
2022/01/18 02:30:00;;;;;;;3.35;1.62;;;;;;;6.20;46.10;100866.34;1699525;83;21093;-51
2022/01/18 02:32:26;;;;;;;3.67;1.55;;;;;;;6.20;46.15;100869.76;1681427;83;21514;-52
2022/01/18 02:34:52;;;;;;;3.35;1.70;;;;;;;6.21;46.27;100870.20;1696804;83;21500;-51
2022/01/18 02:37:19;;;;;;;2.10;1.50;;;;;;;6.19;46.39;100875.80;1680906;83;21546;-51
2022/01/18 02:39:46;;;;;;;3.30;1.65;;;;;;;6.20;46.48;100872.34;1703515;83;21534;-52
2022/01/18 02:42:15;;;;;;;2.47;1.45;;;;;;;6.22;46.57;100879.66;1680599;84;21562;-51
2022/01/18 02:44:41;;;;;;;2.95;1.60;;;;;;;6.24;46.54;100899.06;1675629;83;21083;-53
2022/01/18 02:47:07;;;;;;;2.77;1.75;;;;;;;6.28;46.60;100874.94;1688353;83;21089;-51
2022/01/18 02:49:34;;;;;;;3.05;2.10;;;;;;;6.31;46.51;100877.06;1690477;83;21005;-51
2022/01/18 02:52:01;;;;;;;3.20;1.87;;;;;;;6.33;46.57;100881.80;1684661;83;21105;-52
2022/01/18 02:54:28;;;;;;;3.77;1.60;;;;;;;6.35;46.55;100885.23;1696773;83;21183;-52
2022/01/18 02:57:00;;;;;;;2.52;1.77;;;;;;;6.38;46.55;100883.95;1692041;83;21026;-51
2022/01/18 02:59:47;;;;;;;2.17;1.50;;;;;;;6.38;46.55;100877.49;1683784;83;21065;-52
2022/01/18 03:05:07;;;;;;;2.08;1.50;;;;;;;6.42;46.61;100887.38;1636633;86;21569;-51
2022/01/18 03:07:33;;;;;;;3.27;1.70;;;;;;;6.39;46.68;100885.66;1595331;87;21574;-52
2022/01/18 03:10:04;;;;;;;2.67;1.70;;;;;;;6.38;46.68;100892.13;1619577;87;21582;-51
2022/01/18 03:12:31;;;;;;;4.05;1.87;;;;;;;6.36;46.82;100890.85;1619411;88;21033;-51
2022/01/18 03:14:58;;;;;;;4.03;1.80;;;;;;;6.37;46.86;100880.92;1616243;87;21104;-51
2022/01/18 03:17:24;;;;;;;3.20;1.57;;;;;;;6.40;46.98;100882.65;1633908;86;21155;-51
2022/01/18 03:19:50;;;;;;;2.92;1.90;;;;;;;6.42;46.97;100893.84;1597170;88;21082;-51
2022/01/18 03:22:17;;;;;;;2.55;1.72;;;;;;;6.44;46.93;100874.89;1636041;86;21060;-51
2022/01/18 03:24:48;;;;;;;4.83;2.47;;;;;;;6.45;47.00;100886.93;1623412;86;21068;-52
2022/01/18 03:29:58;;;;;;;2.87;1.77;;;;;;;6.49;47.01;100898.98;1605749;88;21121;-51
2022/01/18 03:32:25;;;;;;;4.10;1.77;;;;;;;6.50;46.96;100905.89;1634966;86;21030;-52
2022/01/18 03:34:52;;;;;;;3.35;1.70;;;;;;;6.50;46.93;100895.55;1585300;89;21058;-52
2022/01/18 03:37:18;;;;;;;2.62;1.47;;;;;;;6.50;46.94;100907.17;1626416;85;21141;-51
2022/01/18 03:39:44;;;;;;;2.95;1.77;;;;;;;6.50;46.86;100903.73;1585550;88;21214;-51
2022/01/18 03:45:01;;;;;;;2.08;1.37;;;;;;;6.49;46.94;100906.73;1603784;88;21585;-51
2022/01/18 03:47:24;;;;;;;2.80;1.77;;;;;;;6.49;47.04;100904.15;1588843;88;21678;-51
2022/01/18 03:49:51;;;;;;;2.50;1.80;;;;;;;6.49;47.06;100892.52;1606959;88;21033;-51
2022/01/18 03:52:17;;;;;;;2.52;1.42;;;;;;;6.50;47.08;100894.25;1638969;86;21068;-52
2022/01/18 03:54:47;;;;;;;4.58;1.80;;;;;;;6.50;46.99;100908.47;1630588;86;21077;-52
2022/01/18 03:57:12;;;;;;;2.15;1.32;;;;;;;6.51;47.14;100905.00;1620702;88;21142;-52
2022/01/18 03:59:39;;;;;;;6.20;1.80;;;;;;;6.51;47.02;100912.76;1586151;89;21060;-52
2022/01/18 04:02:07;;;;;;;4.08;1.67;;;;;;;6.52;47.13;100904.58;1631212;86;21680;-52
2022/01/18 04:04:34;;;;;;;5.17;1.82;;;;;;;6.54;47.09;100910.60;1657866;85;21040;-52
2022/01/18 04:07:02;;;;;;;4.00;1.62;;;;;;;6.55;47.10;100908.01;1655714;85;21539;-51
2022/01/18 04:09:29;;;;;;;2.22;1.47;;;;;;;6.57;47.04;100924.38;1652241;85;21081;-51
2022/01/18 04:11:55;;;;;;;5.00;2.27;;;;;;;6.58;46.88;100931.28;1652941;85;21028;-51
2022/01/18 04:14:24;;;;;;;3.00;1.47;;;;;;;6.59;46.88;100932.98;1690923;83;21061;-52
2022/01/18 04:17:07;;;;;;;3.65;1.90;;;;;;;6.62;46.83;100929.96;1689276;83;21053;-52
2022/01/18 04:27:33;;;;;;;2.20;1.52;;;;;;;6.67;46.75;100954.09;1673417;84;21054;-51
2022/01/18 04:29:58;;;;;;;2.60;1.50;;;;;;;6.67;46.66;100956.68;1687257;83;21030;-51
2022/01/18 04:32:24;;;;;;;2.47;1.42;;;;;;;6.67;46.56;100965.30;1686506;83;21014;-52
2022/01/18 04:34:51;;;;;;;4.62;1.32;;;;;;;6.68;46.51;100973.93;1699116;83;21069;-51
2022/01/18 04:37:18;;;;;;;2.22;1.20;;;;;;;6.69;46.44;100954.95;1699205;83;21023;-51
2022/01/18 04:39:46;;;;;;;4.97;1.80;;;;;;;6.69;46.47;100961.41;1705186;83;21546;-51
2022/01/18 04:42:18;;;;;;;3.15;1.40;;;;;;;6.69;46.62;100967.88;1695768;83;21105;-52
2022/01/18 04:50:10;;;;;;;7.15;1.47;;;;;;;6.66;47.57;100988.59;1670589;85;21023;-51
2022/01/18 04:52:37;;;;;;;3.58;1.40;;;;;;;6.59;46.32;100996.33;1681658;83;21042;-51
2022/01/18 04:55:05;;;;;;;2.27;1.57;;;;;;;6.47;45.76;101000.23;1677556;83;21520;-52
2022/01/18 05:00:16;;;;;;;2.40;1.20;;;;;;;6.37;45.04;100998.52;1693086;83;21512;-51
2022/01/18 05:02:43;;;;;;;4.75;1.42;;;;;;;6.32;44.95;101037.73;1686060;83;21110;-52
2022/01/18 05:05:11;;;;;;;4.28;1.37;;;;;;;6.30;44.70;101026.54;1676308;83;21029;-51
2022/01/18 05:07:38;;;;;;;2.35;1.37;;;;;;;6.31;44.86;101027.37;1681013;83;21059;-51
2022/01/18 05:10:07;;;;;;;2.98;1.10;;;;;;;6.29;44.27;101029.09;1687234;83;21053;-51
2022/01/18 05:15:22;;;;;;;3.92;1.70;;;;;;;6.23;43.82;101009.30;1686060;84;21126;-51
2022/01/18 05:25:20;;;;;;;6.33;1.80;;;;;;;6.14;42.89;101035.12;1598904;89;21097;-51
2022/01/18 05:27:47;;;;;;;3.65;1.30;;;;;;;6.12;42.86;101035.55;1551207;91;21074;-51
2022/01/18 05:30:13;;;;;;;3.42;1.27;;;;;;;6.11;42.47;101066.14;1599853;89;21087;-51
2022/01/18 05:32:40;;;;;;;8.55;1.47;;;;;;;6.08;41.66;101055.78;1559288;91;21078;-52
2022/01/18 05:35:07;;;;;;;7.17;1.77;;;;;;;6.02;39.54;101032.53;1550279;92;21117;-51
2022/01/18 05:37:34;;;;;;;3.67;0.82;;;;;;;6.00;40.47;101043.72;1542532;92;21603;-51
2022/01/18 05:40:00;;;;;;;6.12;1.37;;;;;;;5.96;40.48;101042.86;1550265;92;21467;-51
2022/01/18 05:42:27;;;;;;;6.05;1.20;;;;;;;5.90;40.27;101058.34;1544731;92;21633;-51
2022/01/18 05:44:53;;;;;;;4.40;1.05;;;;;;;5.88;40.77;101039.83;1568567;91;21088;-51
2022/01/18 05:47:19;;;;;;;4.80;1.30;;;;;;;5.85;40.77;101060.08;1566783;91;21058;-51
2022/01/18 05:49:46;;;;;;;1.87;0.75;;;;;;;5.84;40.92;101060.92;1567388;91;21084;-51
2022/01/18 05:52:12;;;;;;;2.30;0.88;;;;;;;5.79;39.53;101079.36;1565918;91;21107;-53
2022/01/18 05:54:39;;;;;;;6.55;1.15;;;;;;;5.76;38.81;101089.70;1565182;91;21135;-51
2022/01/18 05:57:06;;;;;;;1.80;1.00;;;;;;;5.71;37.36;101112.05;1571450;91;21070;-51
2022/01/18 05:59:38;;;;;;;5.12;1.17;;;;;;;5.65;37.17;101075.46;1566193;90;21067;-50
2022/01/18 06:02:16;;;;;;;4.17;1.52;;;;;;;5.61;38.05;101072.44;1607593;87;21524;-50
2022/01/18 06:07:18;;;;;;;3.37;1.52;;;;;;;5.60;38.94;101096.97;1625961;87;21086;-51
2022/01/18 06:09:45;;;;;;;9.03;1.80;;;;;;;5.61;39.26;101097.38;1626626;87;21107;-50
2022/01/18 06:12:12;;;;;;;5.83;1.10;;;;;;;5.58;38.90;101136.11;1575175;88;21100;-51
2022/01/18 06:14:38;;;;;;;4.78;1.35;;;;;;;5.57;38.67;101099.52;1564475;90;21172;-51
2022/01/18 06:17:05;;;;;;;6.92;1.27;;;;;;;5.56;39.86;101123.62;1611508;85;21034;-50
2022/01/18 06:19:31;;;;;;;11.55;1.30;;;;;;;5.54;39.36;101107.27;1655958;86;21099;-51
2022/01/18 06:21:58;;;;;;;3.40;1.40;;;;;;;5.50;39.34;101120.56;1659708;85;21094;-51
2022/01/18 06:24:24;;;;;;;4.35;1.05;;;;;;;5.51;40.73;101105.95;1653459;86;21070;-50
2022/01/18 06:26:52;;;;;;;4.60;1.47;;;;;;;5.49;40.81;101125.30;1641519;86;21098;-51
2022/01/18 06:29:19;;;;;;;2.35;0.93;;;;;;;5.52;40.90;101136.92;1653399;85;21563;-50
2022/01/18 06:31:47;;;;;;;2.70;1.20;;;;;;;5.53;40.25;101128.76;1649389;86;21062;-51
2022/01/18 06:34:14;;;;;;;3.35;1.25;;;;;;;5.53;39.18;101144.24;1646564;85;21448;-52
2022/01/18 06:36:42;;;;;;;1.52;1.02;;;;;;;5.52;38.71;101177.38;1666672;85;21121;-51
2022/01/18 06:39:08;;;;;;;3.85;1.32;;;;;;;5.54;39.06;101176.95;1666278;85;21051;-51
2022/01/18 06:41:35;;;;;;;4.37;1.27;;;;;;;5.55;39.53;101173.51;1643679;86;21071;-51
2022/01/18 06:44:02;;;;;;;4.22;1.02;;;;;;;5.57;38.56;101174.38;1632115;86;21078;-50
2022/01/18 06:46:28;;;;;;;5.42;1.20;;;;;;;5.56;37.21;101166.22;1644809;86;21622;-51
2022/01/18 06:48:55;;;;;;;3.30;0.93;;;;;;;5.55;36.27;101198.03;1633229;86;21126;-51
2022/01/18 06:51:21;;;;;;;2.42;1.15;;;;;;;5.47;35.29;101139.05;1635103;86;21039;-51
2022/01/18 06:53:48;;;;;;;4.12;1.10;;;;;;;5.44;35.39;101230.67;1638069;86;21067;-51
2022/01/18 06:56:17;;;;;;;3.17;1.00;;;;;;;5.43;36.19;101191.51;1641235;86;21068;-51
2022/01/18 06:58:44;;;;;;;2.95;1.12;;;;;;;5.43;35.95;101189.80;1689757;83;20990;-51
2022/01/18 07:01:11;;;;;;;7.00;1.32;;;;;;;5.45;35.39;101179.48;1694884;83;21050;-51
2022/01/18 07:03:38;;;;;;;1.92;1.20;;;;;;;5.47;35.77;101217.77;1706046;83;21046;-51
2022/01/18 07:06:04;;;;;;;1.87;0.98;;;;;;;5.44;35.91;101223.77;1679560;83;21010;-52
2022/01/18 07:08:31;;;;;;;5.83;1.45;;;;;;;5.44;36.26;101215.19;1680247;83;20975;-50
2022/01/18 07:10:58;;;;;;;2.37;1.20;;;;;;;5.44;36.68;101234.09;1682717;83;21058;-52
2022/01/18 07:13:25;;;;;;;2.90;0.90;;;;;;;5.45;36.31;101249.16;1679561;83;21084;-51
2022/01/18 07:15:51;;;;;;;2.47;1.20;;;;;;;5.43;36.42;101244.41;1681883;83;21105;-51
2022/01/18 07:18:18;;;;;;;2.20;1.07;;;;;;;5.41;37.21;101261.19;1698539;83;21022;-50
2022/01/18 07:20:45;;;;;;;3.50;1.10;;;;;;;5.41;36.58;101288.70;1690617;83;21116;-51
2022/01/18 07:23:13;;;;;;;3.27;1.07;;;;;;;5.41;36.44;101262.89;1702872;83;21616;-51
2022/01/18 07:25:44;;;;;;;3.70;0.78;;;;;;;5.40;35.12;101283.12;1681358;83;21557;-50
2022/01/18 07:28:12;;;;;;;2.98;1.27;;;;;;;5.37;35.11;101287.83;1665813;84;21093;-52
2022/01/18 07:30:39;;;;;;;3.15;1.10;;;;;;;5.38;34.78;101291.27;1682112;85;21036;-50
2022/01/18 07:33:05;;;;;;;4.42;1.15;;;;;;;5.36;34.76;101288.66;1654405;84;21025;-50
2022/01/18 07:35:34;;;;;;;2.67;0.90;;;;;;;5.37;35.67;101293.41;1673752;85;21008;-50
2022/01/18 07:38:02;;;;;;;3.58;1.22;;;;;;;5.38;35.87;101308.05;1683717;83;21542;-50
2022/01/18 07:40:29;;;;;;;3.67;1.02;;;;;;;5.39;36.35;101299.44;1678534;85;21066;-52
2022/01/18 07:42:56;;;;;;;4.53;1.02;;;;;;;5.42;35.91;101313.67;1665132;84;21602;-53
2022/01/18 07:45:23;;;;;;;1.75;0.80;;;;;;;5.43;36.39;101310.22;1674622;84;21580;-51
2022/01/18 07:47:49;;;;;;;2.55;1.15;;;;;;;5.45;36.44;101331.33;1665769;84;21486;-50
2022/01/18 07:50:16;;;;;;;2.92;1.40;;;;;;;5.46;36.00;101368.33;1678915;83;21150;-52
2022/01/18 07:52:42;;;;;;;5.20;1.37;;;;;;;5.44;36.55;101361.00;1690645;84;21088;-51
2022/01/18 07:55:09;;;;;;;4.90;1.45;;;;;;;5.38;35.88;101359.66;1669399;84;21073;-51
2022/01/18 07:57:42;;;;;;;3.85;1.57;;;;;;;5.36;35.43;101367.78;1661056;84;21037;-51
2022/01/18 08:00:13;;;;;;;2.40;1.10;;;;;;;5.33;35.14;101353.58;1672007;85;21046;-51
2022/01/18 08:02:42;;;;;;;3.05;1.20;;;;;;;5.30;35.40;101388.38;1678645;84;21641;-51
2022/01/18 08:05:10;;;;;;;1.85;1.07;;;;;;;5.30;36.04;101401.27;1668110;84;21647;-52
2022/01/18 08:07:37;;;;;;;2.50;1.20;;;;;;;5.30;35.72;101398.70;1674766;83;21130;-51
2022/01/18 08:10:05;;;;;;;4.87;1.50;;;;;;;5.28;35.39;101387.49;1676321;84;21019;-50
2022/01/18 08:12:33;;;;;;;3.05;1.12;;;;;;;5.28;35.20;101397.81;1677656;85;21556;-51
2022/01/18 08:15:03;;;;;;;3.42;1.55;;;;;;;5.25;35.76;101395.22;1668834;85;21488;-51
2022/01/18 08:17:29;;;;;;;1.60;0.90;;;;;;;5.27;35.76;101409.87;1674943;84;21061;-51
2022/01/18 08:19:56;;;;;;;4.75;0.98;;;;;;;5.27;34.66;101400.84;1674372;84;21035;-51
2022/01/18 08:22:22;;;;;;;3.12;0.90;;;;;;;5.28;34.29;101412.00;1676609;84;21096;-51
2022/01/18 08:24:49;;;;;;;5.65;0.95;;;;;;;5.29;35.05;101428.81;1695705;83;21061;-51
2022/01/18 08:27:15;;;;;;;2.25;0.90;;;;;;;5.30;36.32;101447.72;1693816;83;21074;-51
2022/01/18 08:29:42;;;;;;;3.40;1.40;;;;;;;5.31;36.19;101442.59;1686033;83;21090;-50
2022/01/18 08:32:09;;;;;;;2.30;0.88;;;;;;;5.32;35.78;101448.60;1682013;83;21093;-51
2022/01/18 08:34:35;;;;;;;3.17;1.37;;;;;;;5.33;35.71;101459.38;1700026;83;21089;-51
2022/01/18 08:37:03;;;;;;;3.12;1.07;;;;;;;5.34;35.52;101457.22;1686527;83;21153;-51
2022/01/18 08:39:29;;;;;;;1.30;0.72;;;;;;;5.32;35.18;101458.50;1684327;84;21046;-51
2022/01/18 08:41:56;;;;;;;2.25;1.00;;;;;;;5.35;34.42;101470.59;1679772;84;21013;-51
2022/01/18 08:44:22;;;;;;;3.12;1.22;;;;;;;5.35;34.73;101469.30;1691563;83;21032;-52
2022/01/18 08:46:48;;;;;;;2.27;1.00;;;;;;;5.33;34.51;101477.44;1680461;83;21026;-51
2022/01/18 08:49:15;;;;;;;5.05;1.00;;;;;;;5.34;34.77;101477.86;1685511;83;21054;-51
2022/01/18 08:51:41;;;;;;;1.67;0.80;;;;;;;5.33;34.91;101481.31;1679662;83;21130;-51
2022/01/18 08:54:08;;;;;;;2.22;1.00;;;;;;;5.33;34.40;101481.31;1684547;83;21096;-51
2022/01/18 08:56:35;;;;;;;2.02;0.80;;;;;;;5.31;34.27;101477.85;1684561;83;21062;-51
2022/01/18 08:59:01;;;;;;;4.00;1.17;;;;;;;5.29;34.30;101474.39;1684662;83;21097;-51
2022/01/18 09:01:28;;;;;;;4.17;1.00;;;;;;;5.31;35.39;101484.30;1684591;83;21550;-51
2022/01/18 09:03:54;;;;;;;1.60;1.00;;;;;;;5.31;34.94;101488.17;1689759;83;21105;-51
2022/01/18 09:06:23;;;;;;;1.00;0.75;;;;;;;5.35;34.89;101475.75;1696594;83;21089;-51
2022/01/18 09:08:55;;;;;;;2.58;0.68;;;;;;;5.36;35.37;101533.81;1692749;83;21058;-51
2022/01/18 09:11:17;;;;;;;2.08;0.70;;;;;;;5.36;35.67;101514.87;1695877;83;21140;-50
2022/01/18 09:13:44;;;;;;;2.55;1.15;;;;;;;5.38;36.21;101523.53;1684255;83;21042;-52
2022/01/18 09:16:11;;;;;;;2.98;0.98;;;;;;;5.42;35.49;101502.91;1681955;83;21070;-50
2022/01/18 09:18:37;;;;;;;3.95;0.78;;;;;;;5.43;34.39;101516.69;1689828;83;21025;-51
2022/01/18 09:21:04;;;;;;;3.17;1.10;;;;;;;5.42;34.93;101506.78;1686077;83;21188;-51
2022/01/18 09:23:31;;;;;;;1.10;0.78;;;;;;;5.43;34.76;101523.14;1695256;83;21086;-51
2022/01/18 09:25:58;;;;;;;2.12;0.72;;;;;;;5.44;35.14;101505.54;1694208;83;21018;-51
2022/01/18 09:28:24;;;;;;;1.75;0.70;;;;;;;5.47;34.24;101516.75;1691254;84;21546;-51
2022/01/18 09:30:50;;;;;;;2.15;0.85;;;;;;;5.52;34.61;101513.77;1685776;83;21062;-51
2022/01/18 09:33:17;;;;;;;1.45;0.60;;;;;;;5.56;34.75;101509.53;1682620;83;21527;-51
2022/01/18 09:35:43;;;;;;;8.25;1.15;;;;;;;5.57;34.90;101515.13;1684463;83;21511;-52
2022/01/18 09:38:12;;;;;;;3.85;0.68;;;;;;;5.56;35.15;101482.43;1681658;84;21096;-51
2022/01/18 09:40:39;;;;;;;1.07;0.62;;;;;;;5.55;34.83;101511.66;1690262;83;21028;-51
2022/01/18 09:45:35;;;;;;;1.12;0.78;;;;;;;5.53;35.10;101509.48;1658354;86;21078;-51
2022/01/18 09:48:03;;;;;;;2.65;0.90;;;;;;;5.55;34.88;101509.08;1652335;85;21561;-51
2022/01/18 09:50:33;;;;;;;5.25;0.95;;;;;;;5.58;35.13;101498.38;1659664;86;21069;-50
2022/01/18 09:53:01;;;;;;;1.95;0.93;;;;;;;5.64;35.16;101524.67;1647251;86;21014;-50
2022/01/18 09:55:31;;;;;;;3.37;1.17;;;;;;;5.71;35.22;101503.22;1646240;86;21050;-51
2022/01/18 09:57:58;;;;;;;4.00;0.78;;;;;;;5.73;34.13;101505.38;1652929;86;21051;-51
2022/01/18 10:00:28;;;;;;;2.27;0.85;;;;;;;5.79;34.59;101519.64;1642597;86;21597;-51
2022/01/18 10:02:54;;;;;;;3.83;1.00;;;;;;;5.84;34.14;101519.31;1623757;87;21119;-51
2022/01/18 10:05:28;;;;;;;2.02;0.88;;;;;;;5.86;33.81;101515.03;1624044;87;21056;-51
2022/01/18 10:07:58;;;;;;;1.92;0.90;;;;;;;5.84;34.66;101527.06;1620435;86;21044;-51
2022/01/18 10:10:53;;;;;;;2.40;0.85;;;;;;;5.82;34.32;101517.11;1632892;87;21115;-51
2022/01/18 10:13:25;;;;;;;1.70;0.88;;;;;;;5.82;34.61;101526.56;1618220;87;21599;-51
2022/01/18 10:16:09;;;;;;;4.60;1.10;;;;;;;5.79;34.49;101523.10;1631861;87;21047;-51
2022/01/18 10:18:50;;;;;;;3.75;1.05;;;;;;;5.77;35.01;101521.34;1626497;87;21059;-51
2022/01/18 10:21:31;;;;;;;1.60;1.05;;;;;;;5.81;35.37;101534.77;1631431;87;21095;-51
2022/01/18 10:24:22;;;;;;;2.92;1.02;;;;;;;5.82;34.66;101527.86;1649969;84;21082;-51
2022/01/18 10:26:51;;;;;;;2.40;1.00;;;;;;;5.81;35.12;101519.27;1648225;86;21060;-51
2022/01/18 10:29:20;;;;;;;2.87;1.37;;;;;;;5.78;35.23;101547.62;1659521;85;21010;-51
2022/01/18 10:37:14;;;;;;;2.80;1.30;;;;;;;5.79;34.80;101548.92;1661010;85;21080;-51
2022/01/18 10:39:50;;;;;;;1.02;0.80;;;;;;;5.82;35.53;101547.22;1551571;91;21093;-51
2022/01/18 10:42:30;;;;;;;3.35;1.10;;;;;;;5.85;34.93;101550.77;1555330;89;21125;-51
2022/01/18 10:45:03;;;;;;;4.92;0.93;;;;;;;5.86;35.58;101557.64;1588655;89;21051;-51
2022/01/18 10:47:31;;;;;;;2.60;1.07;;;;;;;5.90;34.96;101554.23;1531363;93;21196;-51
2022/01/18 10:49:58;;;;;;;4.05;1.27;;;;;;;5.92;34.62;101549.95;1538303;92;21037;-52
2022/01/18 10:52:28;;;;;;;2.92;1.00;;;;;;;5.94;35.15;101576.66;1507614;93;21125;-51
2022/01/18 10:54:56;;;;;;;2.90;1.00;;;;;;;5.97;34.86;101577.13;1543924;93;21065;-51
2022/01/18 10:57:29;;;;;;;1.95;0.78;;;;;;;5.97;34.81;101567.67;1533502;92;21613;-52
2022/01/18 11:00:21;;;;;;;1.37;0.68;;;;;;;5.96;35.29;101584.00;1540112;92;21090;-51
2022/01/18 11:02:54;;;;;;;2.45;0.90;;;;;;;5.94;35.46;101579.25;1559442;92;21101;-51
2022/01/18 11:05:29;;;;;;;2.47;1.10;;;;;;;5.93;35.59;101579.23;1552712;91;21067;-53
2022/01/18 11:07:57;;;;;;;4.30;1.50;;;;;;;5.88;35.37;101576.60;1538092;91;21581;-51
2022/01/18 11:10:28;;;;;;;1.30;0.90;;;;;;;5.83;34.24;101586.00;1538239;91;21079;-51
2022/01/18 11:13:03;;;;;;;4.92;0.90;;;;;;;5.79;34.01;101585.50;1503076;95;21212;-50
2022/01/18 11:15:27;;;;;;;1.55;0.62;;;;;;;5.75;33.55;101591.06;1501232;95;21164;-50
2022/01/18 11:18:01;;;;;;;2.22;0.85;;;;;;;5.78;33.93;101594.11;1509742;95;22525;-50
2022/01/18 11:20:32;;;;;;;1.55;0.90;;;;;;;5.83;33.75;101591.17;1507881;94;21931;-50
2022/01/18 11:22:59;;;;;;;1.85;0.70;;;;;;;5.87;33.88;101602.01;1503122;94;21128;-50
2022/01/18 11:25:26;;;;;;;1.17;0.50;;;;;;;5.89;32.96;101589.97;1505459;95;21075;-51
2022/01/18 11:27:53;;;;;;;2.37;0.85;;;;;;;5.88;32.53;101609.30;1501191;95;21101;-50
2022/01/18 11:30:24;;;;;;;1.87;1.00;;;;;;;5.87;32.60;101598.55;1506946;95;21095;-50
2022/01/18 11:32:53;;;;;;;0.95;0.60;;;;;;;5.89;33.68;101606.77;1495158;95;21094;-51
2022/01/18 11:35:57;;;;;;;4.45;0.90;;;;;;;5.91;33.79;101600.31;1520520;89;21112;-52
2022/01/18 11:38:46;;;;;;;4.42;1.20;;;;;;;5.90;33.75;101581.36;1578907;89;21077;-52
2022/01/18 11:41:28;;;;;;;3.00;1.40;;;;;;;5.88;34.06;101601.14;1583329;90;21097;-51
2022/01/18 11:43:56;;;;;;;2.27;1.20;;;;;;;5.89;34.08;101598.14;1590794;87;21128;-52
2022/01/18 11:46:31;;;;;;;2.25;1.52;;;;;;;5.87;34.01;101609.75;1617993;87;21124;-52
2022/01/18 11:49:22;;;;;;;1.62;1.47;;;;;;;5.88;33.77;101607.59;1619608;87;21025;-52
2022/01/18 11:52:05;;;;;;;3.00;1.90;;;;;;;5.90;34.24;101602.02;1580848;89;21068;-52
2022/01/18 11:57:29;;;;;;;4.30;2.45;;;;;;;5.89;35.02;101596.43;1552788;91;21026;-50
2022/01/18 11:59:58;;;;;;;3.87;3.10;;;;;;;5.94;35.60;101586.12;1566513;90;21106;-50
2022/01/18 12:02:34;;;;;;;7.40;3.72;;;;;;;5.98;35.29;101611.12;1533766;92;21571;-50
2022/01/18 12:05:07;;;;;;;6.60;4.62;;;;;;;5.99;35.93;101613.75;1542617;92;21108;-50
2022/01/18 12:07:44;;;;;;;4.40;3.50;;;;;;;6.03;36.68;101628.44;1542112;92;21565;-50
2022/01/18 12:10:43;;;;;;;5.60;3.17;;;;;;;6.06;36.78;101618.12;1559139;90;21639;-51
2022/01/18 12:13:11;;;;;;;5.40;2.50;;;;;;;6.09;36.81;101625.91;1561947;90;21124;-50
2022/01/18 12:15:49;;;;;;;2.45;1.80;;;;;;;6.06;36.50;101615.53;1537204;92;21143;-51
2022/01/18 12:18:26;;;;;;;2.02;1.12;;;;;;;6.05;36.41;101629.31;1540194;91;21212;-51
2022/01/18 12:21:06;;;;;;;1.72;1.20;;;;;;;6.05;35.81;101623.28;1517203;94;21572;-50
2022/01/18 12:23:41;;;;;;;2.15;1.32;;;;;;;6.07;36.42;101636.66;1479664;96;21111;-50
2022/01/18 12:26:31;;;;;;;5.42;3.20;;;;;;;6.12;35.92;101636.27;1503394;94;21111;-50
2022/01/18 12:34:31;;;;;;;3.67;2.95;;;;;;;6.07;36.89;101639.24;1473676;96;21126;-51
2022/01/18 12:37:24;;;;;;;4.00;2.58;;;;;;;6.02;37.30;101648.65;1481072;96;21187;-50
2022/01/18 12:39:59;;;;;;;3.17;1.60;;;;;;;5.99;37.50;101647.34;1489207;96;21182;-50
2022/01/18 12:45:19;;;;;;;2.80;1.10;;;;;;;6.00;38.08;101664.97;1484004;96;21641;-50
2022/01/18 12:47:55;;;;;;;3.45;1.40;;;;;;;5.98;39.05;101670.55;1437098;98;21605;-50
2022/01/18 12:50:28;;;;;;;5.17;1.60;;;;;;;5.89;39.39;101682.96;1442424;99;21135;-50
2022/01/18 12:53:02;;;;;;;2.42;1.67;;;;;;;5.85;39.73;101681.19;1429171;99;21145;-52
2022/01/18 12:55:57;;;;;;;3.95;1.37;;;;;;;5.84;40.26;101698.81;1444140;99;21087;-51
2022/01/18 12:58:38;;;;;;;1.87;1.32;;;;;;;5.86;40.55;101701.41;1444272;99;21128;-50
2022/01/18 13:01:19;;;;;;;2.85;1.30;;;;;;;5.90;40.52;101704.05;1413119;99;21189;-52
2022/01/18 13:03:53;;;;;;;2.58;1.98;;;;;;;5.86;40.86;101701.41;1428571;99;21077;-52
2022/01/18 13:06:24;;;;;;;4.75;2.67;;;;;;;5.82;41.06;101708.22;1409474;100;21173;-52
2022/01/18 13:11:30;;;;;;;4.05;2.90;;;;;;;5.79;41.09;101705.59;1348675;106;21096;-51
2022/01/18 13:14:12;;;;;;;6.55;4.80;;;;;;;5.76;41.59;101718.48;1347217;106;21648;-51
2022/01/18 13:27:24;;;;;;;5.40;4.83;;;;;;;5.74;42.00;101726.62;1337292;105;21780;-51
2022/01/18 13:29:47;;;;;;;4.80;4.30;;;;;;;5.75;42.44;101745.13;1387147;102;21179;-51
2022/01/18 13:32:18;;;;;;;7.78;4.58;;;;;;;5.70;43.24;101744.22;1378263;103;21210;-52
2022/01/18 13:34:47;;;;;;;13.28;11.45;;;;;;;5.55;45.17;101762.06;1376667;102;21617;-52
2022/01/18 13:37:16;;;;;;;9.43;7.67;;;;;;;5.40;47.35;101769.61;1377080;103;21081;-52
2022/01/18 13:39:53;;;;;;;9.60;5.90;;;;;;;5.22;48.87;101769.29;1404549;102;21595;-52